sensor_id;sensor_type;location;lat;lon;timestamp;temperature;humidity
29341;DHT22;16337;59.536;13.468;2023-05-07T00:00:03;-0.20;99.90
29341;DHT22;16337;59.536;13.468;2023-05-07T00:02:33;-0.20;99.90
29341;DHT22;16337;59.536;13.468;2023-05-07T00:04:58;-0.30;99.90
29341;DHT22;16337;59.536;13.468;2023-05-07T00:07:24;-0.40;99.90
29341;DHT22;16337;59.536;13.468;2023-05-07T00:09:50;-0.40;99.90
29341;DHT22;16337;59.536;13.468;2023-05-07T00:12:15;-0.50;99.90
29341;DHT22;16337;59.536;13.468;2023-05-07T00:14:41;-0.60;99.90
29341;DHT22;16337;59.536;13.468;2023-05-07T00:17:07;-0.60;99.90
29341;DHT22;16337;59.536;13.468;2023-05-07T00:19:33;-0.70;99.90
29341;DHT22;16337;59.536;13.468;2023-05-07T00:21:58;-0.80;99.90
29341;DHT22;16337;59.536;13.468;2023-05-07T00:24:24;-0.80;99.90
29341;DHT22;16337;59.536;13.468;2023-05-07T00:26:50;-0.80;99.90
29341;DHT22;16337;59.536;13.468;2023-05-07T00:29:16;-0.90;99.90
29341;DHT22;16337;59.536;13.468;2023-05-07T00:31:42;-0.90;99.90
29341;DHT22;16337;59.536;13.468;2023-05-07T00:34:07;-0.90;99.90
29341;DHT22;16337;59.536;13.468;2023-05-07T00:36:33;-1.00;99.90
29341;DHT22;16337;59.536;13.468;2023-05-07T00:39:00;-1.00;99.90
29341;DHT22;16337;59.536;13.468;2023-05-07T00:41:27;-1.00;99.90
29341;DHT22;16337;59.536;13.468;2023-05-07T00:43:53;-1.00;99.90
29341;DHT22;16337;59.536;13.468;2023-05-07T00:46:20;-1.00;99.90
29341;DHT22;16337;59.536;13.468;2023-05-07T00:48:47;-1.00;99.90
29341;DHT22;16337;59.536;13.468;2023-05-07T00:51:13;-1.00;99.90
29341;DHT22;16337;59.536;13.468;2023-05-07T00:53:39;-1.00;99.90
29341;DHT22;16337;59.536;13.468;2023-05-07T00:56:06;-1.00;99.90
29341;DHT22;16337;59.536;13.468;2023-05-07T00:58:33;-1.10;99.90
29341;DHT22;16337;59.536;13.468;2023-05-07T01:00:59;-1.10;99.90
29341;DHT22;16337;59.536;13.468;2023-05-07T01:03:25;-1.10;99.90
29341;DHT22;16337;59.536;13.468;2023-05-07T01:05:53;-1.10;99.90
29341;DHT22;16337;59.536;13.468;2023-05-07T01:08:20;-1.20;99.90
29341;DHT22;16337;59.536;13.468;2023-05-07T01:10:47;-1.20;99.90
29341;DHT22;16337;59.536;13.468;2023-05-07T01:13:14;-1.30;99.90
29341;DHT22;16337;59.536;13.468;2023-05-07T01:15:40;-1.30;99.90
29341;DHT22;16337;59.536;13.468;2023-05-07T01:18:07;-1.30;99.90
29341;DHT22;16337;59.536;13.468;2023-05-07T01:20:33;-1.30;99.90
29341;DHT22;16337;59.536;13.468;2023-05-07T01:23:00;-1.30;99.90
29341;DHT22;16337;59.536;13.468;2023-05-07T01:25:26;-1.40;99.90
29341;DHT22;16337;59.536;13.468;2023-05-07T01:27:52;-1.40;99.90
29341;DHT22;16337;59.536;13.468;2023-05-07T01:30:20;-1.40;99.90
29341;DHT22;16337;59.536;13.468;2023-05-07T01:32:53;-1.50;99.90
29341;DHT22;16337;59.536;13.468;2023-05-07T01:35:24;-1.50;99.90
29341;DHT22;16337;59.536;13.468;2023-05-07T01:37:51;-1.50;99.90
29341;DHT22;16337;59.536;13.468;2023-05-07T01:40:18;-1.50;99.90
29341;DHT22;16337;59.536;13.468;2023-05-07T01:42:44;-1.60;99.90
29341;DHT22;16337;59.536;13.468;2023-05-07T01:45:11;-1.60;99.90
29341;DHT22;16337;59.536;13.468;2023-05-07T01:47:37;-1.50;99.90
29341;DHT22;16337;59.536;13.468;2023-05-07T01:50:05;-1.60;99.90
29341;DHT22;16337;59.536;13.468;2023-05-07T01:52:31;-1.60;99.90
29341;DHT22;16337;59.536;13.468;2023-05-07T01:54:57;-1.70;99.90
29341;DHT22;16337;59.536;13.468;2023-05-07T01:57:23;-1.70;99.90
29341;DHT22;16337;59.536;13.468;2023-05-07T01:59:48;-1.70;99.90
29341;DHT22;16337;59.536;13.468;2023-05-07T02:02:14;-1.70;99.90
29341;DHT22;16337;59.536;13.468;2023-05-07T02:04:40;-1.70;99.90
29341;DHT22;16337;59.536;13.468;2023-05-07T02:07:06;-1.70;99.90
29341;DHT22;16337;59.536;13.468;2023-05-07T02:09:32;-1.70;99.90
29341;DHT22;16337;59.536;13.468;2023-05-07T02:11:57;-1.70;99.90
29341;DHT22;16337;59.536;13.468;2023-05-07T02:14:23;-1.70;99.90
29341;DHT22;16337;59.536;13.468;2023-05-07T02:16:49;-1.70;99.90
29341;DHT22;16337;59.536;13.468;2023-05-07T02:19:15;-1.70;99.90
29341;DHT22;16337;59.536;13.468;2023-05-07T02:21:41;-1.70;99.90
29341;DHT22;16337;59.536;13.468;2023-05-07T02:24:07;-1.70;99.90
29341;DHT22;16337;59.536;13.468;2023-05-07T02:26:32;-1.80;99.90
29341;DHT22;16337;59.536;13.468;2023-05-07T02:28:59;-1.80;99.90
29341;DHT22;16337;59.536;13.468;2023-05-07T02:31:25;-1.80;99.90
29341;DHT22;16337;59.536;13.468;2023-05-07T02:33:50;-1.80;99.90
29341;DHT22;16337;59.536;13.468;2023-05-07T02:36:16;-1.80;99.90
29341;DHT22;16337;59.536;13.468;2023-05-07T02:38:42;-1.80;99.90
29341;DHT22;16337;59.536;13.468;2023-05-07T02:41:07;-1.80;99.90
29341;DHT22;16337;59.536;13.468;2023-05-07T02:43:33;-1.90;99.90
29341;DHT22;16337;59.536;13.468;2023-05-07T02:46:07;-1.90;99.90
29341;DHT22;16337;59.536;13.468;2023-05-07T02:48:33;-1.90;99.90
29341;DHT22;16337;59.536;13.468;2023-05-07T02:50:59;-2.00;99.90
29341;DHT22;16337;59.536;13.468;2023-05-07T02:53:25;-2.00;99.90
29341;DHT22;16337;59.536;13.468;2023-05-07T02:55:59;-2.00;99.90
29341;DHT22;16337;59.536;13.468;2023-05-07T02:58:26;-2.00;99.90
29341;DHT22;16337;59.536;13.468;2023-05-07T03:00:52;-2.00;99.90
29341;DHT22;16337;59.536;13.468;2023-05-07T03:03:18;-2.00;99.90
29341;DHT22;16337;59.536;13.468;2023-05-07T03:05:44;-2.10;99.90
29341;DHT22;16337;59.536;13.468;2023-05-07T03:08:10;-2.10;99.90
29341;DHT22;16337;59.536;13.468;2023-05-07T03:10:36;-2.10;99.90
29341;DHT22;16337;59.536;13.468;2023-05-07T03:13:03;-2.10;99.90
29341;DHT22;16337;59.536;13.468;2023-05-07T03:15:29;-2.00;99.90
29341;DHT22;16337;59.536;13.468;2023-05-07T03:17:55;-2.00;99.90
29341;DHT22;16337;59.536;13.468;2023-05-07T03:20:21;-2.00;99.90
29341;DHT22;16337;59.536;13.468;2023-05-07T03:22:47;-2.00;99.90
29341;DHT22;16337;59.536;13.468;2023-05-07T03:25:12;-1.90;99.90
29341;DHT22;16337;59.536;13.468;2023-05-07T03:27:39;-1.90;99.90
29341;DHT22;16337;59.536;13.468;2023-05-07T03:30:05;-1.90;99.90
29341;DHT22;16337;59.536;13.468;2023-05-07T03:32:32;-1.90;99.90
29341;DHT22;16337;59.536;13.468;2023-05-07T03:34:58;-1.90;99.90
29341;DHT22;16337;59.536;13.468;2023-05-07T03:37:24;-1.90;99.90
29341;DHT22;16337;59.536;13.468;2023-05-07T03:39:49;-1.80;99.90
29341;DHT22;16337;59.536;13.468;2023-05-07T03:42:15;-1.70;99.90
29341;DHT22;16337;59.536;13.468;2023-05-07T03:44:41;-1.70;99.90
29341;DHT22;16337;59.536;13.468;2023-05-07T03:47:07;-1.70;99.90
29341;DHT22;16337;59.536;13.468;2023-05-07T03:49:33;-1.70;99.90
29341;DHT22;16337;59.536;13.468;2023-05-07T03:51:58;-1.60;99.90
29341;DHT22;16337;59.536;13.468;2023-05-07T03:54:24;-1.60;99.90
29341;DHT22;16337;59.536;13.468;2023-05-07T03:56:50;-1.60;99.90
29341;DHT22;16337;59.536;13.468;2023-05-07T03:59:16;-1.50;99.90
29341;DHT22;16337;59.536;13.468;2023-05-07T04:01:41;-1.40;99.90
29341;DHT22;16337;59.536;13.468;2023-05-07T04:04:07;-1.30;99.90
29341;DHT22;16337;59.536;13.468;2023-05-07T04:06:33;-1.20;99.90
29341;DHT22;16337;59.536;13.468;2023-05-07T04:08:58;-1.10;99.90
29341;DHT22;16337;59.536;13.468;2023-05-07T04:11:25;-0.90;99.90
29341;DHT22;16337;59.536;13.468;2023-05-07T04:13:50;-0.80;99.90
29341;DHT22;16337;59.536;13.468;2023-05-07T04:16:16;-0.60;99.90
29341;DHT22;16337;59.536;13.468;2023-05-07T04:18:42;-0.50;99.90
29341;DHT22;16337;59.536;13.468;2023-05-07T04:21:18;-0.30;99.90
29341;DHT22;16337;59.536;13.468;2023-05-07T04:23:46;-0.10;99.90
29341;DHT22;16337;59.536;13.468;2023-05-07T04:26:12;0.10;99.90
29341;DHT22;16337;59.536;13.468;2023-05-07T04:28:38;0.20;99.90
29341;DHT22;16337;59.536;13.468;2023-05-07T04:31:05;0.40;99.90
29341;DHT22;16337;59.536;13.468;2023-05-07T04:33:31;0.50;99.90
29341;DHT22;16337;59.536;13.468;2023-05-07T04:35:56;0.60;99.90
29341;DHT22;16337;59.536;13.468;2023-05-07T04:38:22;0.80;99.90
29341;DHT22;16337;59.536;13.468;2023-05-07T04:40:51;0.90;99.90
29341;DHT22;16337;59.536;13.468;2023-05-07T04:43:17;1.00;99.90
29341;DHT22;16337;59.536;13.468;2023-05-07T04:45:42;1.10;99.90
29341;DHT22;16337;59.536;13.468;2023-05-07T04:48:09;1.30;99.90
29341;DHT22;16337;59.536;13.468;2023-05-07T04:50:35;1.30;99.90
29341;DHT22;16337;59.536;13.468;2023-05-07T04:53:01;1.50;99.90
29341;DHT22;16337;59.536;13.468;2023-05-07T04:55:26;1.60;99.90
29341;DHT22;16337;59.536;13.468;2023-05-07T04:57:53;1.70;99.90
29341;DHT22;16337;59.536;13.468;2023-05-07T05:00:18;1.80;99.90
29341;DHT22;16337;59.536;13.468;2023-05-07T05:02:45;1.90;99.90
29341;DHT22;16337;59.536;13.468;2023-05-07T05:05:11;2.00;99.90
29341;DHT22;16337;59.536;13.468;2023-05-07T05:07:37;2.10;99.90
29341;DHT22;16337;59.536;13.468;2023-05-07T05:10:04;2.20;99.90
29341;DHT22;16337;59.536;13.468;2023-05-07T05:12:30;2.30;99.90
29341;DHT22;16337;59.536;13.468;2023-05-07T05:14:56;2.50;99.90
29341;DHT22;16337;59.536;13.468;2023-05-07T05:17:21;2.60;99.90
29341;DHT22;16337;59.536;13.468;2023-05-07T05:19:47;2.80;99.90
29341;DHT22;16337;59.536;13.468;2023-05-07T05:22:13;2.90;99.90
29341;DHT22;16337;59.536;13.468;2023-05-07T05:24:38;3.10;99.90
29341;DHT22;16337;59.536;13.468;2023-05-07T05:27:05;3.20;99.90
29341;DHT22;16337;59.536;13.468;2023-05-07T05:29:30;3.30;99.90
29341;DHT22;16337;59.536;13.468;2023-05-07T05:31:57;3.50;99.90
29341;DHT22;16337;59.536;13.468;2023-05-07T05:34:23;3.50;99.90
29341;DHT22;16337;59.536;13.468;2023-05-07T05:36:48;3.70;99.90
29341;DHT22;16337;59.536;13.468;2023-05-07T05:39:14;3.80;99.90
29341;DHT22;16337;59.536;13.468;2023-05-07T05:41:40;4.10;99.90
29341;DHT22;16337;59.536;13.468;2023-05-07T05:44:06;4.10;99.90
29341;DHT22;16337;59.536;13.468;2023-05-07T05:46:32;4.30;99.90
29341;DHT22;16337;59.536;13.468;2023-05-07T05:48:58;4.50;99.90
29341;DHT22;16337;59.536;13.468;2023-05-07T05:51:24;4.60;99.90
29341;DHT22;16337;59.536;13.468;2023-05-07T05:53:49;4.70;99.90
29341;DHT22;16337;59.536;13.468;2023-05-07T05:56:16;4.80;99.90
29341;DHT22;16337;59.536;13.468;2023-05-07T05:58:41;4.90;99.90
29341;DHT22;16337;59.536;13.468;2023-05-07T06:01:07;5.10;99.90
29341;DHT22;16337;59.536;13.468;2023-05-07T06:03:33;5.30;99.90
29341;DHT22;16337;59.536;13.468;2023-05-07T06:05:59;5.40;99.90
29341;DHT22;16337;59.536;13.468;2023-05-07T06:08:30;5.60;99.90
29341;DHT22;16337;59.536;13.468;2023-05-07T06:10:56;5.80;99.90
29341;DHT22;16337;59.536;13.468;2023-05-07T06:13:22;6.00;99.90
29341;DHT22;16337;59.536;13.468;2023-05-07T06:15:49;6.10;99.90
29341;DHT22;16337;59.536;13.468;2023-05-07T06:18:14;6.20;99.90
29341;DHT22;16337;59.536;13.468;2023-05-07T06:20:40;6.40;99.90
29341;DHT22;16337;59.536;13.468;2023-05-07T06:23:06;6.50;99.90
29341;DHT22;16337;59.536;13.468;2023-05-07T06:25:32;6.70;99.90
29341;DHT22;16337;59.536;13.468;2023-05-07T06:27:57;6.90;99.90
29341;DHT22;16337;59.536;13.468;2023-05-07T06:30:23;7.10;99.90
29341;DHT22;16337;59.536;13.468;2023-05-07T06:32:49;7.10;99.90
29341;DHT22;16337;59.536;13.468;2023-05-07T06:35:14;7.10;99.90
29341;DHT22;16337;59.536;13.468;2023-05-07T06:37:41;7.20;99.90
29341;DHT22;16337;59.536;13.468;2023-05-07T06:40:10;7.20;99.90
29341;DHT22;16337;59.536;13.468;2023-05-07T06:42:36;7.40;99.90
29341;DHT22;16337;59.536;13.468;2023-05-07T06:45:03;7.60;99.90
29341;DHT22;16337;59.536;13.468;2023-05-07T06:47:29;7.80;99.90
29341;DHT22;16337;59.536;13.468;2023-05-07T06:49:55;7.80;99.90
29341;DHT22;16337;59.536;13.468;2023-05-07T06:52:20;7.90;99.90
29341;DHT22;16337;59.536;13.468;2023-05-07T06:54:46;7.90;99.90
29341;DHT22;16337;59.536;13.468;2023-05-07T06:57:12;8.10;99.90
29341;DHT22;16337;59.536;13.468;2023-05-07T06:59:37;8.10;99.90
29341;DHT22;16337;59.536;13.468;2023-05-07T07:02:03;8.40;99.90
29341;DHT22;16337;59.536;13.468;2023-05-07T07:04:29;8.50;99.90
29341;DHT22;16337;59.536;13.468;2023-05-07T07:06:55;8.50;99.90
29341;DHT22;16337;59.536;13.468;2023-05-07T07:09:22;8.70;99.90
29341;DHT22;16337;59.536;13.468;2023-05-07T07:11:49;8.80;99.90
29341;DHT22;16337;59.536;13.468;2023-05-07T07:14:15;8.90;99.90
29341;DHT22;16337;59.536;13.468;2023-05-07T07:16:41;9.20;99.90
29341;DHT22;16337;59.536;13.468;2023-05-07T07:19:07;9.30;99.90
29341;DHT22;16337;59.536;13.468;2023-05-07T07:21:32;9.40;99.90
29341;DHT22;16337;59.536;13.468;2023-05-07T07:23:58;9.90;99.90
29341;DHT22;16337;59.536;13.468;2023-05-07T07:26:24;10.20;99.90
29341;DHT22;16337;59.536;13.468;2023-05-07T07:28:50;10.20;99.90
29341;DHT22;16337;59.536;13.468;2023-05-07T07:31:15;10.10;99.90
29341;DHT22;16337;59.536;13.468;2023-05-07T07:33:41;10.00;99.90
29341;DHT22;16337;59.536;13.468;2023-05-07T07:36:07;10.20;99.90
29341;DHT22;16337;59.536;13.468;2023-05-07T07:38:33;10.60;99.90
29341;DHT22;16337;59.536;13.468;2023-05-07T07:41:00;10.40;99.90
29341;DHT22;16337;59.536;13.468;2023-05-07T07:43:25;10.70;99.90
29341;DHT22;16337;59.536;13.468;2023-05-07T07:45:51;10.90;99.90
29341;DHT22;16337;59.536;13.468;2023-05-07T07:48:17;11.30;99.90
29341;DHT22;16337;59.536;13.468;2023-05-07T07:50:42;11.20;99.90
29341;DHT22;16337;59.536;13.468;2023-05-07T07:53:08;11.50;99.90
29341;DHT22;16337;59.536;13.468;2023-05-07T07:55:38;11.80;99.90
29341;DHT22;16337;59.536;13.468;2023-05-07T07:58:04;12.00;99.90
29341;DHT22;16337;59.536;13.468;2023-05-07T08:00:30;12.20;99.90
29341;DHT22;16337;59.536;13.468;2023-05-07T08:02:56;12.10;99.90
29341;DHT22;16337;59.536;13.468;2023-05-07T08:05:23;12.00;99.70
29341;DHT22;16337;59.536;13.468;2023-05-07T08:07:48;11.80;99.90
29341;DHT22;16337;59.536;13.468;2023-05-07T08:10:17;12.10;99.90
29341;DHT22;16337;59.536;13.468;2023-05-07T08:12:50;12.10;99.90
29341;DHT22;16337;59.536;13.468;2023-05-07T08:15:16;13.10;99.90
29341;DHT22;16337;59.536;13.468;2023-05-07T08:17:43;13.30;99.90
29341;DHT22;16337;59.536;13.468;2023-05-07T08:20:09;14.00;99.90
29341;DHT22;16337;59.536;13.468;2023-05-07T08:22:36;14.50;99.90
29341;DHT22;16337;59.536;13.468;2023-05-07T08:25:02;15.30;98.80
29341;DHT22;16337;59.536;13.468;2023-05-07T08:27:27;15.20;97.90
29341;DHT22;16337;59.536;13.468;2023-05-07T08:29:54;15.80;96.90
29341;DHT22;16337;59.536;13.468;2023-05-07T08:32:20;16.10;96.60
29341;DHT22;16337;59.536;13.468;2023-05-07T08:34:47;16.40;94.70
29341;DHT22;16337;59.536;13.468;2023-05-07T08:37:13;15.40;93.60
29341;DHT22;16337;59.536;13.468;2023-05-07T08:39:38;15.20;95.80
29341;DHT22;16337;59.536;13.468;2023-05-07T08:42:04;14.70;94.80
29341;DHT22;16337;59.536;13.468;2023-05-07T08:44:34;15.20;95.60
29341;DHT22;16337;59.536;13.468;2023-05-07T08:47:02;15.60;93.30
29341;DHT22;16337;59.536;13.468;2023-05-07T08:49:31;15.40;94.10
29341;DHT22;16337;59.536;13.468;2023-05-07T08:51:59;15.70;93.50
29341;DHT22;16337;59.536;13.468;2023-05-07T08:54:25;15.60;93.50
29341;DHT22;16337;59.536;13.468;2023-05-07T08:56:51;15.20;91.60
29341;DHT22;16337;59.536;13.468;2023-05-07T08:59:17;15.20;93.20
29341;DHT22;16337;59.536;13.468;2023-05-07T09:01:43;15.20;90.80
29341;DHT22;16337;59.536;13.468;2023-05-07T09:04:08;14.20;91.90
29341;DHT22;16337;59.536;13.468;2023-05-07T09:06:34;14.60;91.50
29341;DHT22;16337;59.536;13.468;2023-05-07T09:09:00;14.80;93.50
29341;DHT22;16337;59.536;13.468;2023-05-07T09:11:27;15.00;91.30
29341;DHT22;16337;59.536;13.468;2023-05-07T09:13:56;15.00;90.90
29341;DHT22;16337;59.536;13.468;2023-05-07T09:16:25;14.60;91.10
29341;DHT22;16337;59.536;13.468;2023-05-07T09:18:52;15.10;91.80
29341;DHT22;16337;59.536;13.468;2023-05-07T09:21:20;15.80;90.50
29341;DHT22;16337;59.536;13.468;2023-05-07T09:23:51;15.30;88.10
29341;DHT22;16337;59.536;13.468;2023-05-07T09:26:18;15.70;90.90
29341;DHT22;16337;59.536;13.468;2023-05-07T09:28:46;16.30;90.30
29341;DHT22;16337;59.536;13.468;2023-05-07T09:31:12;17.00;87.60
29341;DHT22;16337;59.536;13.468;2023-05-07T09:33:39;16.20;82.60
29341;DHT22;16337;59.536;13.468;2023-05-07T09:36:09;15.00;84.80
29341;DHT22;16337;59.536;13.468;2023-05-07T09:38:36;15.20;87.20
29341;DHT22;16337;59.536;13.468;2023-05-07T09:41:10;16.00;87.60
29341;DHT22;16337;59.536;13.468;2023-05-07T09:43:37;16.40;83.40
29341;DHT22;16337;59.536;13.468;2023-05-07T09:46:13;15.70;82.60
29341;DHT22;16337;59.536;13.468;2023-05-07T09:48:41;16.20;87.70
29341;DHT22;16337;59.536;13.468;2023-05-07T09:51:24;16.10;83.00
29341;DHT22;16337;59.536;13.468;2023-05-07T09:53:53;16.60;83.50
29341;DHT22;16337;59.536;13.468;2023-05-07T09:56:19;17.30;81.00
29341;DHT22;16337;59.536;13.468;2023-05-07T09:58:46;16.90;78.20
29341;DHT22;16337;59.536;13.468;2023-05-07T10:01:13;16.60;79.50
29341;DHT22;16337;59.536;13.468;2023-05-07T10:03:43;16.60;81.10
29341;DHT22;16337;59.536;13.468;2023-05-07T10:06:10;17.00;81.80
29341;DHT22;16337;59.536;13.468;2023-05-07T10:08:37;17.60;78.70
29341;DHT22;16337;59.536;13.468;2023-05-07T10:11:06;17.20;75.10
29341;DHT22;16337;59.536;13.468;2023-05-07T10:13:34;17.00;79.10
29341;DHT22;16337;59.536;13.468;2023-05-07T10:16:04;17.10;81.00
29341;DHT22;16337;59.536;13.468;2023-05-07T10:18:33;17.00;82.80
29341;DHT22;16337;59.536;13.468;2023-05-07T10:21:16;17.60;79.00
29341;DHT22;16337;59.536;13.468;2023-05-07T10:23:45;17.50;75.50
29341;DHT22;16337;59.536;13.468;2023-05-07T10:26:12;16.70;76.00
29341;DHT22;16337;59.536;13.468;2023-05-07T10:28:42;16.90;77.40
29341;DHT22;16337;59.536;13.468;2023-05-07T10:34:09;17.20;75.30
29341;DHT22;16337;59.536;13.468;2023-05-07T10:36:35;17.20;83.90
29341;DHT22;16337;59.536;13.468;2023-05-07T10:39:01;17.70;82.10
29341;DHT22;16337;59.536;13.468;2023-05-07T10:41:27;18.20;78.50
29341;DHT22;16337;59.536;13.468;2023-05-07T10:43:53;18.30;77.80
29341;DHT22;16337;59.536;13.468;2023-05-07T10:46:20;19.00;77.80
29341;DHT22;16337;59.536;13.468;2023-05-07T10:51:29;19.00;73.50
29341;DHT22;16337;59.536;13.468;2023-05-07T10:54:19;18.90;70.50
29341;DHT22;16337;59.536;13.468;2023-05-07T10:56:45;18.60;73.20
29341;DHT22;16337;59.536;13.468;2023-05-07T11:01:57;18.50;70.60
29341;DHT22;16337;59.536;13.468;2023-05-07T11:04:24;18.50;75.80
29341;DHT22;16337;59.536;13.468;2023-05-07T11:10:01;17.80;71.50
29341;DHT22;16337;59.536;13.468;2023-05-07T11:15:05;18.70;75.80
29341;DHT22;16337;59.536;13.468;2023-05-07T11:17:31;18.30;70.60
29341;DHT22;16337;59.536;13.468;2023-05-07T11:20:00;18.60;75.50
29341;DHT22;16337;59.536;13.468;2023-05-07T11:25:02;18.50;69.60
29341;DHT22;16337;59.536;13.468;2023-05-07T11:27:29;18.40;70.60
29341;DHT22;16337;59.536;13.468;2023-05-07T11:29:55;18.40;73.00
29341;DHT22;16337;59.536;13.468;2023-05-07T11:32:28;18.20;69.50
29341;DHT22;16337;59.536;13.468;2023-05-07T11:34:55;18.40;70.80
29341;DHT22;16337;59.536;13.468;2023-05-07T11:37:22;18.60;68.80
29341;DHT22;16337;59.536;13.468;2023-05-07T11:39:48;19.20;72.30
29341;DHT22;16337;59.536;13.468;2023-05-07T11:42:28;19.60;68.60
29341;DHT22;16337;59.536;13.468;2023-05-07T11:44:54;18.40;66.10
29341;DHT22;16337;59.536;13.468;2023-05-07T11:47:21;17.80;68.80
29341;DHT22;16337;59.536;13.468;2023-05-07T11:49:53;17.60;69.50
29341;DHT22;16337;59.536;13.468;2023-05-07T11:52:21;17.50;68.80
29341;DHT22;16337;59.536;13.468;2023-05-07T11:54:54;17.10;70.30
29341;DHT22;16337;59.536;13.468;2023-05-07T11:57:26;18.00;73.00
29341;DHT22;16337;59.536;13.468;2023-05-07T11:59:56;18.50;67.70
29341;DHT22;16337;59.536;13.468;2023-05-07T12:02:23;18.70;70.90
29341;DHT22;16337;59.536;13.468;2023-05-07T12:04:50;18.70;66.30
29341;DHT22;16337;59.536;13.468;2023-05-07T12:07:16;18.20;67.00
29341;DHT22;16337;59.536;13.468;2023-05-07T12:09:44;17.70;67.10
29341;DHT22;16337;59.536;13.468;2023-05-07T12:12:10;17.60;66.50
29341;DHT22;16337;59.536;13.468;2023-05-07T12:14:39;18.10;69.20
29341;DHT22;16337;59.536;13.468;2023-05-07T12:17:09;17.80;65.10
29341;DHT22;16337;59.536;13.468;2023-05-07T12:19:36;18.40;69.00
29341;DHT22;16337;59.536;13.468;2023-05-07T12:22:07;19.20;68.10
29341;DHT22;16337;59.536;13.468;2023-05-07T12:24:47;19.70;70.10
29341;DHT22;16337;59.536;13.468;2023-05-07T12:27:14;19.30;62.00
29341;DHT22;16337;59.536;13.468;2023-05-07T12:29:40;19.10;67.50
29341;DHT22;16337;59.536;13.468;2023-05-07T12:32:16;18.40;64.10
29341;DHT22;16337;59.536;13.468;2023-05-07T12:34:43;19.00;68.10
29341;DHT22;16337;59.536;13.468;2023-05-07T12:37:10;19.10;65.60
29341;DHT22;16337;59.536;13.468;2023-05-07T12:39:36;18.90;63.00
29341;DHT22;16337;59.536;13.468;2023-05-07T12:42:02;18.70;65.90
29341;DHT22;16337;59.536;13.468;2023-05-07T12:44:34;18.50;63.80
29341;DHT22;16337;59.536;13.468;2023-05-07T12:47:03;18.80;69.80
29341;DHT22;16337;59.536;13.468;2023-05-07T12:49:29;18.90;64.60
29341;DHT22;16337;59.536;13.468;2023-05-07T12:51:55;18.90;70.60
29341;DHT22;16337;59.536;13.468;2023-05-07T12:54:35;18.90;65.00
29341;DHT22;16337;59.536;13.468;2023-05-07T12:57:09;18.70;64.90
29341;DHT22;16337;59.536;13.468;2023-05-07T12:59:37;18.10;67.90
29341;DHT22;16337;59.536;13.468;2023-05-07T13:02:04;18.10;65.90
29341;DHT22;16337;59.536;13.468;2023-05-07T13:04:29;17.80;67.40
29341;DHT22;16337;59.536;13.468;2023-05-07T13:06:55;17.90;65.20
29341;DHT22;16337;59.536;13.468;2023-05-07T13:09:21;17.90;67.20
29341;DHT22;16337;59.536;13.468;2023-05-07T13:11:47;18.70;70.60
29341;DHT22;16337;59.536;13.468;2023-05-07T13:14:12;19.00;67.00
29341;DHT22;16337;59.536;13.468;2023-05-07T13:16:38;19.30;68.50
29341;DHT22;16337;59.536;13.468;2023-05-07T13:19:04;19.40;63.80
29341;DHT22;16337;59.536;13.468;2023-05-07T13:21:30;19.80;67.70
29341;DHT22;16337;59.536;13.468;2023-05-07T13:23:59;19.60;62.30
29341;DHT22;16337;59.536;13.468;2023-05-07T13:26:25;19.90;64.00
29341;DHT22;16337;59.536;13.468;2023-05-07T13:28:54;19.90;66.50
29341;DHT22;16337;59.536;13.468;2023-05-07T13:31:20;20.20;62.60
29341;DHT22;16337;59.536;13.468;2023-05-07T13:33:46;20.40;63.60
29341;DHT22;16337;59.536;13.468;2023-05-07T13:36:12;20.00;63.40
29341;DHT22;16337;59.536;13.468;2023-05-07T13:38:39;20.30;67.60
29341;DHT22;16337;59.536;13.468;2023-05-07T13:41:04;19.50;64.40
29341;DHT22;16337;59.536;13.468;2023-05-07T13:43:30;19.70;65.70
29341;DHT22;16337;59.536;13.468;2023-05-07T13:45:57;19.10;62.40
29341;DHT22;16337;59.536;13.468;2023-05-07T13:48:23;18.90;65.10
29341;DHT22;16337;59.536;13.468;2023-05-07T13:50:49;19.00;67.40
29341;DHT22;16337;59.536;13.468;2023-05-07T13:53:15;19.50;64.40
29341;DHT22;16337;59.536;13.468;2023-05-07T13:55:43;19.20;64.40
29341;DHT22;16337;59.536;13.468;2023-05-07T13:58:10;18.20;62.20
29341;DHT22;16337;59.536;13.468;2023-05-07T14:00:35;18.40;70.50
29341;DHT22;16337;59.536;13.468;2023-05-07T14:03:02;19.00;67.00
29341;DHT22;16337;59.536;13.468;2023-05-07T14:05:27;19.70;64.70
29341;DHT22;16337;59.536;13.468;2023-05-07T14:07:54;19.40;62.30
29341;DHT22;16337;59.536;13.468;2023-05-07T14:10:20;19.40;66.90
29341;DHT22;16337;59.536;13.468;2023-05-07T14:12:46;19.30;62.50
29341;DHT22;16337;59.536;13.468;2023-05-07T14:15:13;19.40;68.00
29341;DHT22;16337;59.536;13.468;2023-05-07T14:17:39;19.60;63.90
29341;DHT22;16337;59.536;13.468;2023-05-07T14:20:05;19.60;60.10
29341;DHT22;16337;59.536;13.468;2023-05-07T14:22:34;19.60;63.50
29341;DHT22;16337;59.536;13.468;2023-05-07T14:24:59;19.50;64.50
29341;DHT22;16337;59.536;13.468;2023-05-07T14:27:25;19.50;62.10
29341;DHT22;16337;59.536;13.468;2023-05-07T14:29:51;19.60;64.60
29341;DHT22;16337;59.536;13.468;2023-05-07T14:32:17;19.40;63.50
29341;DHT22;16337;59.536;13.468;2023-05-07T14:34:44;19.60;62.30
29341;DHT22;16337;59.536;13.468;2023-05-07T14:37:10;19.70;65.20
29341;DHT22;16337;59.536;13.468;2023-05-07T14:39:36;20.20;64.20
29341;DHT22;16337;59.536;13.468;2023-05-07T14:42:02;19.60;61.10
29341;DHT22;16337;59.536;13.468;2023-05-07T14:44:27;19.50;59.60
29341;DHT22;16337;59.536;13.468;2023-05-07T14:46:54;18.90;64.10
29341;DHT22;16337;59.536;13.468;2023-05-07T14:49:20;18.90;64.50
29341;DHT22;16337;59.536;13.468;2023-05-07T14:51:46;19.10;63.00
29341;DHT22;16337;59.536;13.468;2023-05-07T14:54:15;18.80;58.50
29341;DHT22;16337;59.536;13.468;2023-05-07T14:56:42;18.60;62.60
29341;DHT22;16337;59.536;13.468;2023-05-07T14:59:08;18.80;62.70
29341;DHT22;16337;59.536;13.468;2023-05-07T15:01:35;18.80;59.10
29341;DHT22;16337;59.536;13.468;2023-05-07T15:04:02;18.70;64.60
29341;DHT22;16337;59.536;13.468;2023-05-07T15:06:28;18.70;58.60
29341;DHT22;16337;59.536;13.468;2023-05-07T15:08:54;18.50;56.50
29341;DHT22;16337;59.536;13.468;2023-05-07T15:11:20;18.60;58.40
29341;DHT22;16337;59.536;13.468;2023-05-07T15:13:46;19.10;58.40
29341;DHT22;16337;59.536;13.468;2023-05-07T15:16:12;19.40;58.20
29341;DHT22;16337;59.536;13.468;2023-05-07T15:18:38;19.10;58.50
29341;DHT22;16337;59.536;13.468;2023-05-07T15:21:04;19.10;59.80
29341;DHT22;16337;59.536;13.468;2023-05-07T15:23:30;19.40;59.80
29341;DHT22;16337;59.536;13.468;2023-05-07T15:25:56;19.60;55.60
29341;DHT22;16337;59.536;13.468;2023-05-07T15:28:22;18.60;58.90
29341;DHT22;16337;59.536;13.468;2023-05-07T15:30:48;17.90;58.20
29341;DHT22;16337;59.536;13.468;2023-05-07T15:33:13;17.30;63.30